KHTS/HTS METAR and TAF weather

Enter ICAO airport designator
Station Type Date Time Source
KHTS METAR 2019/06/16 19:51 UTC NOAA

KHTS 161951Z 20006KT 10SM CLR 29/21 A2992 RMK AO2 SLP123 T02890206


Station Type Date Time Source
KHTS Decoded METAR 2019/06/16 19:51 UTC NOAA

TRI-STATE AIRPORT, WV, United States (KHTS) 38-22N 082-33W 254M
Jun 16, 2019 - 03:51 PM EDT / 2019.06.16 1951 UTC
Wind: from the SSW (200 degrees) at 7 MPH (6 KT):0
Visibility: 10 mile(s):0
Sky conditions: clear
Temperature: 84.0 F (28.9 C)
Dew Point: 69.1 F (20.6 C)
Relative Humidity: 60%
Pressure (altimeter): 29.92 in. Hg (1013 hPa)
ob: KHTS 161951Z 20006KT 10SM CLR 29/21 A2992 RMK AO2 SLP123 T02890206
cycle: 20

Station Type Date Time Source
KHTS TAF 2019/06/16 20:21 UTC NOAA

TAF
AMD KHTS 162019Z 1620/1718 23010KT P6SM VCTS BKN050CB
TEMPO 1622/1624 3/4SM TS BR OVC050CB
FM170200 21005KT P6SM VCTS BKN180CB
TEMPO 1702/1705 2SM TS BR OVC050CB
FM170600 20005KT P6SM -RA BKN120
FM171500 22007KT P6SM BKN180

Example: see airport list